Time;durP1;ratioP1;P1;durP2;ratioP2;P2;SDS_P1;SDS_P2;PMS_P1;PMS_P2;Temp;Humidity;BMP_temperature;BMP_pressure;BME280_temperature;BME280_humidity;BME280_pressure;Samples;Min_cycle;Max_cycle;Signal;HPM_P1;HPM_P2
2023/01/13 00:01:27;;;;;;;3.93;0.60;;;9.10;99.90;;;;;;6122237;23;20161;-82
2023/01/13 00:03:55;;;;;;;1.37;0.40;;;9.10;99.90;;;;;;6122332;23;20623;-82
2023/01/13 00:06:28;;;;;;;1.37;0.50;;;9.10;99.90;;;;;;6157407;23;20197;-81
2023/01/13 00:08:54;;;;;;;1.13;0.50;;;9.10;99.90;;;;;;6103583;23;20162;-87
2023/01/13 00:11:22;;;;;;;0.70;0.57;;;9.10;99.90;;;;;;6100965;23;20172;-88
2023/01/13 00:13:48;;;;;;;3.57;0.70;;;9.20;99.90;;;;;;6129295;23;20626;-88
2023/01/13 00:16:17;;;;;;;1.03;0.40;;;9.20;99.90;;;;;;6129401;23;20485;-87
2023/01/13 00:18:46;;;;;;;1.67;1.30;;;9.20;99.90;;;;;;6102275;23;20169;-88
2023/01/13 00:21:17;;;;;;;1.30;0.90;;;9.30;99.90;;;;;;6103221;23;20592;-88
2023/01/13 00:23:44;;;;;;;1.60;0.80;;;9.30;99.90;;;;;;6102086;23;20259;-88
2023/01/13 00:26:22;;;;;;;2.93;0.80;;;9.30;99.90;;;;;;6098028;23;20549;-82
2023/01/13 00:28:55;;;;;;;2.37;0.67;;;9.40;99.90;;;;;;6126833;23;20489;-87
2023/01/13 00:31:21;;;;;;;1.43;0.60;;;9.40;99.90;;;;;;6125921;23;20157;-87
2023/01/13 00:33:49;;;;;;;3.03;0.90;;;9.40;99.90;;;;;;6123148;23;20218;-82
2023/01/13 00:36:19;;;;;;;3.43;0.80;;;9.30;99.90;;;;;;6097800;23;20161;-82
2023/01/13 00:38:46;;;;;;;2.03;0.70;;;9.30;99.90;;;;;;6122047;23;20187;-81
2023/01/13 00:41:20;;;;;;;1.63;0.83;;;9.30;99.90;;;;;;6096683;23;20157;-82
2023/01/13 00:43:50;;;;;;;0.93;0.50;;;9.30;99.90;;;;;;6098665;23;20169;-81
2023/01/13 00:46:20;;;;;;;3.10;0.60;;;9.30;99.90;;;;;;6120878;23;20167;-81
2023/01/13 00:48:51;;;;;;;1.20;0.60;;;9.30;99.90;;;;;;6096768;23;20161;-82
2023/01/13 00:51:25;;;;;;;0.87;0.50;;;9.30;99.90;;;;;;6098295;23;20160;-82
2023/01/13 00:53:52;;;;;;;1.97;0.63;;;9.20;99.90;;;;;;6099636;23;20160;-81
2023/01/13 00:56:24;;;;;;;2.77;0.67;;;9.20;99.90;;;;;;6101298;23;20180;-86
2023/01/13 00:58:51;;;;;;;0.57;0.33;;;9.20;99.90;;;;;;6122959;23;20250;-87
2023/01/13 01:01:23;;;;;;;1.33;0.50;;;9.20;99.90;;;;;;6148323;23;20226;-86
2023/01/13 01:03:54;;;;;;;1.43;0.60;;;9.30;99.90;;;;;;6101855;23;20160;-87
2023/01/13 01:06:26;;;;;;;1.67;0.50;;;9.30;99.90;;;;;;6102483;23;20244;-82
2023/01/13 01:08:54;;;;;;;1.50;0.57;;;9.30;99.90;;;;;;6103486;23;20228;-87
2023/01/13 01:11:28;;;;;;;0.53;0.50;;;9.20;99.90;;;;;;6105343;23;20164;-82
2023/01/13 01:14:03;;;;;;;0.83;0.50;;;9.30;99.90;;;;;;6100876;23;20537;-87
2023/01/13 01:16:33;;;;;;;3.13;0.63;;;9.20;99.90;;;;;;6098526;23;20243;-82
2023/01/13 01:19:01;;;;;;;0.50;0.47;;;9.20;99.90;;;;;;6098110;23;20157;-87
2023/01/13 01:21:34;;;;;;;3.40;0.60;;;9.20;99.90;;;;;;6125151;23;20366;-89
2023/01/13 01:24:03;;;;;;;6.90;0.60;;;9.20;99.90;;;;;;6100500;23;20180;-88
2023/01/13 01:26:30;;;;;;;0.87;0.57;;;9.20;99.90;;;;;;6099945;23;20205;-87
2023/01/13 01:29:00;;;;;;;0.50;0.40;;;9.20;99.90;;;;;;6124900;23;20388;-87
2023/01/13 01:31:31;;;;;;;2.13;0.67;;;9.20;99.90;;;;;;6099702;23;20370;-88
2023/01/13 01:33:59;;;;;;;2.37;0.60;;;9.10;99.90;;;;;;6100644;23;20841;-88
2023/01/13 01:36:33;;;;;;;5.27;0.77;;;9.10;99.90;;;;;;6096390;23;20165;-88
2023/01/13 01:39:01;;;;;;;1.43;0.67;;;9.10;99.90;;;;;;6099765;23;20201;-88
2023/01/13 01:41:33;;;;;;;1.67;0.60;;;9.10;99.90;;;;;;6102194;23;20248;-87
2023/01/13 01:44:23;;;;;;;1.53;0.70;;;9.10;99.90;;;;;;6123394;23;20228;-89
2023/01/13 01:46:54;;;;;;;3.33;0.60;;;9.10;99.90;;;;;;6100993;23;20183;-88
2023/01/13 01:49:31;;;;;;;4.33;0.70;;;9.10;99.90;;;;;;6102218;23;20157;-88
2023/01/13 01:52:16;;;;;;;1.37;0.60;;;9.00;99.90;;;;;;6102499;23;20532;-89
2023/01/13 01:55:14;;;;;;;1.40;0.67;;;9.00;99.90;;;;;;6125928;23;20188;-89
2023/01/13 01:57:42;;;;;;;2.60;0.60;;;9.00;99.90;;;;;;6151528;23;20219;-86
2023/01/13 02:00:11;;;;;;;1.10;0.47;;;9.00;99.90;;;;;;6101736;23;20161;-88
2023/01/13 02:02:41;;;;;;;1.57;0.43;;;8.90;99.90;;;;;;6100739;23;20655;-88
2023/01/13 02:05:10;;;;;;;1.87;0.70;;;8.90;99.90;;;;;;6100680;23;20196;-87
2023/01/13 02:07:40;;;;;;;1.43;0.60;;;8.90;99.90;;;;;;6102159;23;20509;-88
2023/01/13 02:10:14;;;;;;;4.30;0.70;;;8.90;99.90;;;;;;6101102;23;20247;-88
2023/01/13 02:12:44;;;;;;;2.60;0.70;;;8.90;99.90;;;;;;6126135;23;20284;-87
2023/01/13 02:15:21;;;;;;;2.33;0.90;;;8.90;99.90;;;;;;6100342;23;20588;-82
2023/01/13 02:18:28;;;;;;;0.77;0.63;;;8.90;99.90;;;;;;6123533;23;20160;-88
2023/01/13 02:21:53;;;;;;;3.43;0.80;;;8.90;99.90;;;;;;6099083;23;20171;-82
2023/01/13 02:25:19;;;;;;;1.07;0.57;;;8.90;99.90;;;;;;6086491;23;20247;-88
2023/01/13 02:28:21;;;;;;;0.73;0.40;;;8.90;99.90;;;;;;6043219;23;20152;-88
2023/01/13 02:34:21;;;;;;;0.47;0.47;;;8.80;99.90;;;;;;6122587;23;20172;-81
2023/01/13 02:37:09;;;;;;;2.40;0.83;;;8.90;99.90;;;;;;6120532;23;20227;-81
2023/01/13 02:39:47;;;;;;;0.53;0.53;;;8.90;99.90;;;;;;6124412;23;20171;-82
2023/01/13 02:45:40;;;;;;;1.43;0.60;;;8.80;99.90;;;;;;6121796;23;20238;-82
2023/01/13 02:48:15;;;;;;;1.53;0.50;;;8.80;99.90;;;;;;6123556;23;20165;-81
2023/01/13 02:50:52;;;;;;;1.87;0.60;;;8.80;99.90;;;;;;6159855;23;20207;-81
2023/01/13 02:53:34;;;;;;;1.33;0.70;;;8.80;99.90;;;;;;6100275;23;20188;-81
2023/01/13 02:56:05;;;;;;;1.53;0.70;;;8.80;99.90;;;;;;6161118;23;20164;-82
2023/01/13 02:58:37;;;;;;;2.83;0.60;;;8.80;99.90;;;;;;6124401;23;20639;-82
2023/01/13 03:01:04;;;;;;;1.47;0.60;;;8.70;99.90;;;;;;6124093;23;20165;-82
2023/01/13 03:03:31;;;;;;;1.77;0.73;;;8.70;99.90;;;;;;6123970;23;20195;-82
2023/01/13 03:06:35;;;;;;;2.60;0.73;;;8.70;99.90;;;;;;6099961;23;20295;-82
2023/01/13 03:09:44;;;;;;;1.20;0.67;;;8.70;99.90;;;;;;6124831;23;20561;-82
2023/01/13 03:12:41;;;;;;;0.63;0.33;;;8.70;99.90;;;;;;6124401;23;20186;-81
2023/01/13 03:15:46;;;;;;;5.77;0.60;;;8.70;99.90;;;;;;6076108;23;20624;-81
2023/01/13 03:18:43;;;;;;;1.80;0.70;;;8.70;99.90;;;;;;6124604;23;20161;-82
2023/01/13 03:21:52;;;;;;;1.70;0.60;;;8.70;99.90;;;;;;6123695;23;20156;-81
2023/01/13 03:24:54;;;;;;;2.17;0.43;;;8.60;99.90;;;;;;6160631;23;20323;-82
2023/01/13 03:27:34;;;;;;;2.67;0.90;;;8.60;99.90;;;;;;6065309;23;20509;-82
2023/01/13 03:30:49;;;;;;;1.23;0.50;;;8.60;99.90;;;;;;6160178;23;20270;-82
2023/01/13 03:33:28;;;;;;;0.40;0.40;;;8.70;99.90;;;;;;6124078;23;20589;-82
2023/01/13 03:36:09;;;;;;;2.63;0.50;;;8.60;99.90;;;;;;6099583;23;20167;-82
2023/01/13 03:38:51;;;;;;;2.70;1.43;;;8.70;99.90;;;;;;6125979;23;20165;-90
2023/01/13 03:41:39;;;;;;;1.47;0.50;;;8.70;99.90;;;;;;6125425;23;20264;-89
2023/01/13 03:44:34;;;;;;;2.07;0.60;;;8.70;99.90;;;;;;6161741;23;20615;-89
2023/01/13 03:47:41;;;;;;;0.60;0.53;;;8.80;99.90;;;;;;6102848;23;20157;-88
2023/01/13 03:50:27;;;;;;;0.77;0.60;;;8.80;99.90;;;;;;6103633;23;20165;-89
2023/01/13 03:53:15;;;;;;;4.17;0.60;;;8.80;99.90;;;;;;6098553;23;20157;-82
2023/01/13 03:55:51;;;;;;;2.47;0.60;;;8.80;99.90;;;;;;6100018;23;20428;-89
2023/01/13 03:58:48;;;;;;;1.20;0.70;;;8.80;99.90;;;;;;6100671;23;20173;-89
2023/01/13 04:02:06;;;;;;;1.77;0.63;;;8.80;99.90;;;;;;6098219;23;20169;-82
2023/01/13 04:04:56;;;;;;;1.97;0.70;;;8.80;99.90;;;;;;6109511;23;20631;-82
2023/01/13 04:07:51;;;;;;;2.10;0.80;;;8.80;99.90;;;;;;6158827;23;20153;-81
2023/01/13 04:10:32;;;;;;;2.77;0.60;;;8.70;99.90;;;;;;6123305;23;20157;-81
2023/01/13 04:13:09;;;;;;;2.43;0.80;;;8.70;99.90;;;;;;6098251;23;20165;-82
2023/01/13 04:15:43;;;;;;;1.50;0.53;;;8.70;99.90;;;;;;6147342;23;20172;-82
2023/01/13 04:18:23;;;;;;;2.63;0.83;;;8.70;99.90;;;;;;6098884;23;20251;-82
2023/01/13 04:20:57;;;;;;;3.50;0.80;;;8.60;99.90;;;;;;6099138;23;20593;-82
2023/01/13 04:23:24;;;;;;;0.80;0.60;;;8.60;99.90;;;;;;6098481;23;20579;-81
2023/01/13 04:25:51;;;;;;;3.23;0.70;;;8.70;99.90;;;;;;6158472;23;20186;-82
2023/01/13 04:28:18;;;;;;;1.43;0.60;;;8.70;99.90;;;;;;6147580;23;20903;-82
2023/01/13 04:30:51;;;;;;;3.60;0.87;;;8.70;99.90;;;;;;6097177;23;20164;-81
2023/01/13 04:33:19;;;;;;;4.97;0.80;;;8.70;99.90;;;;;;6147425;23;20165;-82
2023/01/13 04:35:46;;;;;;;2.20;0.50;;;8.70;99.90;;;;;;6101761;23;20161;-89
2023/01/13 04:38:17;;;;;;;2.70;0.67;;;8.70;99.90;;;;;;6151030;23;20185;-88
2023/01/13 04:40:44;;;;;;;5.30;0.83;;;8.70;99.90;;;;;;6102138;23;20532;-88
2023/01/13 04:43:11;;;;;;;4.07;0.63;;;8.70;99.90;;;;;;6099981;23;20248;-81
2023/01/13 04:45:45;;;;;;;2.13;0.60;;;8.70;99.90;;;;;;6122605;23;20188;-82
2023/01/13 04:48:13;;;;;;;1.47;0.60;;;8.70;99.90;;;;;;6122962;23;20289;-82
2023/01/13 04:50:43;;;;;;;1.83;0.70;;;8.70;99.90;;;;;;6121881;23;20186;-82
2023/01/13 04:53:13;;;;;;;0.70;0.67;;;8.70;99.90;;;;;;6122258;23;20198;-82
2023/01/13 04:55:43;;;;;;;1.53;0.80;;;8.70;99.90;;;;;;6122889;23;20173;-83
2023/01/13 04:58:12;;;;;;;1.17;0.60;;;8.70;99.90;;;;;;6097494;23;20541;-82
2023/01/13 05:00:38;;;;;;;0.57;0.57;;;8.70;99.90;;;;;;6122045;23;20172;-83
2023/01/13 05:03:05;;;;;;;1.67;0.73;;;8.70;99.90;;;;;;6147243;23;20763;-82
2023/01/13 05:05:32;;;;;;;0.67;0.50;;;8.70;99.90;;;;;;6122665;23;20201;-82
2023/01/13 05:07:58;;;;;;;1.50;0.70;;;8.70;99.90;;;;;;6095718;23;20176;-82
2023/01/13 05:10:27;;;;;;;0.57;0.40;;;8.80;99.90;;;;;;6097291;23;20362;-82
2023/01/13 05:18:30;;;;;;;0.30;0.30;;;8.80;99.90;;;;;;6126267;23;20252;-90
2023/01/13 05:20:58;;;;;;;1.27;0.63;;;8.80;99.90;;;;;;6102030;23;20161;-90
2023/01/13 05:26:23;;;;;;;1.20;0.37;;;8.80;99.90;;;;;;6117424;23;20200;-82
2023/01/13 05:28:49;;;;;;;1.03;0.63;;;8.80;99.90;;;;;;6097671;23;20157;-82
2023/01/13 05:31:21;;;;;;;1.67;0.57;;;8.80;99.90;;;;;;6147008;23;20165;-82
2023/01/13 05:33:47;;;;;;;0.50;0.40;;;8.60;99.90;;;;;;6124398;23;20157;-82
2023/01/13 05:36:13;;;;;;;1.77;0.70;;;8.60;99.90;;;;;;6146700;23;20672;-82
2023/01/13 05:38:41;;;;;;;1.20;0.63;;;8.60;99.90;;;;;;6122793;23;20161;-82
2023/01/13 05:44:10;;;;;;;0.30;0.27;;;8.40;99.90;;;;;;6045818;23;20497;-82
2023/01/13 05:46:39;;;;;;;0.50;0.50;;;8.30;99.90;;;;;;6092860;23;20236;-82
2023/01/13 05:49:06;;;;;;;3.10;0.80;;;8.30;99.90;;;;;;6093589;23;20165;-82
2023/01/13 05:51:32;;;;;;;1.60;0.40;;;8.30;99.90;;;;;;6117013;23;20160;-82
2023/01/13 05:53:59;;;;;;;0.63;0.50;;;8.30;99.90;;;;;;6092559;23;20158;-82
2023/01/13 05:56:25;;;;;;;0.90;0.53;;;8.30;99.90;;;;;;6094189;23;20197;-89
2023/01/13 05:58:52;;;;;;;0.83;0.40;;;8.30;99.90;;;;;;6093979;23;20193;-88
2023/01/13 06:01:18;;;;;;;1.10;0.73;;;8.30;99.90;;;;;;6068107;23;20165;-82
2023/01/13 06:03:48;;;;;;;0.60;0.40;;;8.30;99.90;;;;;;6090049;23;20165;-82
2023/01/13 06:06:23;;;;;;;1.73;0.50;;;8.40;99.90;;;;;;6095610;23;20169;-87
2023/01/13 06:08:49;;;;;;;1.00;0.60;;;8.50;99.90;;;;;;6071650;23;20654;-88
2023/01/13 06:11:16;;;;;;;1.03;0.60;;;8.60;99.90;;;;;;6049102;23;20165;-89
2023/01/13 06:13:42;;;;;;;1.03;0.50;;;8.80;99.90;;;;;;6096965;23;20161;-89
2023/01/13 06:16:16;;;;;;;0.93;0.80;;;8.90;99.90;;;;;;6093952;23;20164;-89
2023/01/13 06:18:43;;;;;;;1.10;0.70;;;9.00;99.90;;;;;;6070942;23;20162;-89
2023/01/13 06:21:09;;;;;;;2.47;0.90;;;9.00;99.90;;;;;;6095836;23;20231;-90
2023/01/13 06:23:37;;;;;;;1.03;0.90;;;9.20;99.90;;;;;;6097218;23;20193;-90
2023/01/13 06:26:20;;;;;;;1.87;0.80;;;9.20;99.90;;;;;;6095466;23;20181;-88
2023/01/13 06:28:46;;;;;;;3.73;0.90;;;9.30;99.90;;;;;;6071863;23;20188;-89
2023/01/13 06:31:13;;;;;;;1.80;1.20;;;9.30;99.90;;;;;;6128932;23;20154;-89
2023/01/13 06:33:49;;;;;;;1.07;0.97;;;9.40;99.90;;;;;;6071847;23;20245;-88
2023/01/13 06:36:33;;;;;;;1.50;1.20;;;9.50;99.90;;;;;;6072646;23;20161;-89
2023/01/13 06:39:07;;;;;;;3.33;1.20;;;9.50;99.90;;;;;;6072748;23;20235;-86
2023/01/13 06:44:25;;;;;;;2.97;1.27;;;9.70;99.90;;;;;;6096031;23;20216;-90
2023/01/13 06:46:51;;;;;;;1.73;1.20;;;9.90;99.90;;;;;;6070879;23;20208;-90
2023/01/13 06:49:21;;;;;;;1.53;1.23;;;9.80;99.90;;;;;;6071091;23;20165;-89
2023/01/13 06:51:49;;;;;;;1.23;1.07;;;9.80;99.90;;;;;;6093229;23;20493;-83
2023/01/13 06:54:16;;;;;;;1.27;1.10;;;9.80;99.90;;;;;;6091115;23;20165;-83
2023/01/13 06:56:42;;;;;;;1.27;1.00;;;9.80;99.90;;;;;;6067465;23;20170;-83
2023/01/13 06:59:09;;;;;;;2.30;1.00;;;9.80;99.90;;;;;;6127562;23;20166;-83
2023/01/13 07:01:36;;;;;;;1.70;0.80;;;9.80;99.90;;;;;;6093467;23;20162;-88
2023/01/13 07:04:05;;;;;;;0.83;0.73;;;9.70;99.90;;;;;;6093195;23;20209;-83
2023/01/13 07:06:35;;;;;;;1.60;0.90;;;9.80;99.90;;;;;;6117331;23;20165;-83
2023/01/13 07:09:04;;;;;;;1.03;0.90;;;9.80;99.90;;;;;;6067978;23;20169;-83
2023/01/13 07:11:30;;;;;;;1.60;0.70;;;9.80;99.90;;;;;;6067762;23;20193;-83
2023/01/13 07:16:44;;;;;;;2.70;0.90;;;9.80;99.90;;;;;;6090323;23;20219;-83
2023/01/13 07:19:21;;;;;;;0.70;0.70;;;9.90;99.90;;;;;;6090554;23;20162;-83
2023/01/13 07:21:51;;;;;;;5.07;1.43;;;9.90;99.90;;;;;;6070608;23;20166;-88
2023/01/13 07:24:22;;;;;;;1.63;0.87;;;10.00;99.90;;;;;;6070759;23;20193;-89
2023/01/13 07:26:51;;;;;;;1.07;0.80;;;10.10;99.90;;;;;;6072456;23;20165;-90
2023/01/13 07:29:18;;;;;;;3.93;1.13;;;10.10;99.90;;;;;;6094014;23;20165;-82
2023/01/13 07:31:46;;;;;;;1.50;0.97;;;10.10;99.90;;;;;;6067913;23;20256;-82
2023/01/13 07:34:14;;;;;;;1.73;1.10;;;10.20;99.90;;;;;;6069650;23;20261;-88
2023/01/13 07:36:41;;;;;;;1.80;1.00;;;10.20;99.90;;;;;;6098816;23;20260;-89
2023/01/13 07:39:11;;;;;;;1.30;1.00;;;10.30;99.90;;;;;;6095785;23;20260;-82
2023/01/13 07:44:23;;;;;;;1.57;0.97;;;10.30;99.90;;;;;;6094260;23;20193;-89
2023/01/13 07:46:50;;;;;;;2.40;1.10;;;10.40;99.90;;;;;;6070613;23;20157;-82
2023/01/13 07:49:16;;;;;;;1.67;1.03;;;10.50;99.90;;;;;;6117980;23;20248;-83
2023/01/13 07:51:43;;;;;;;2.00;1.00;;;10.60;99.90;;;;;;6130692;23;20154;-89
2023/01/13 07:54:12;;;;;;;1.87;1.00;;;10.50;99.90;;;;;;6095282;23;20166;-83
2023/01/13 07:56:39;;;;;;;1.00;0.90;;;10.60;99.90;;;;;;6094293;23;20240;-89
2023/01/13 07:59:11;;;;;;;3.77;1.40;;;10.50;99.90;;;;;;6096643;23;20593;-87
2023/01/13 08:01:37;;;;;;;1.80;1.50;;;10.50;99.90;;;;;;6096120;23;20169;-90
2023/01/13 08:04:04;;;;;;;2.00;1.50;;;10.60;99.90;;;;;;6096734;23;20157;-88
2023/01/13 08:06:35;;;;;;;1.90;1.57;;;10.60;99.90;;;;;;6072160;23;20321;-88
2023/01/13 08:09:04;;;;;;;2.13;1.77;;;10.60;99.90;;;;;;6093994;23;20166;-83
2023/01/13 08:11:31;;;;;;;2.00;1.50;;;10.70;99.90;;;;;;6092689;23;20229;-83
2023/01/13 08:13:57;;;;;;;1.87;1.67;;;10.70;99.90;;;;;;6116917;23;20199;-82
2023/01/13 08:16:24;;;;;;;2.60;1.83;;;10.80;99.90;;;;;;6127299;23;20153;-82
2023/01/13 08:18:53;;;;;;;5.47;1.70;;;10.90;99.90;;;;;;6116304;23;20196;-82
2023/01/13 08:21:19;;;;;;;2.10;1.90;;;10.90;99.90;;;;;;6126463;23;20593;-82
2023/01/13 08:23:45;;;;;;;1.80;1.67;;;10.90;99.90;;;;;;6070993;23;20158;-87
2023/01/13 08:26:20;;;;;;;3.87;1.53;;;11.00;99.90;;;;;;6094389;23;20189;-83
2023/01/13 08:28:46;;;;;;;1.37;1.20;;;11.00;99.90;;;;;;6069385;23;20240;-82
2023/01/13 08:31:18;;;;;;;2.30;1.47;;;11.00;99.90;;;;;;6127281;23;20145;-83
2023/01/13 08:33:46;;;;;;;1.43;1.17;;;11.10;99.90;;;;;;6128845;23;20229;-83
2023/01/13 08:36:13;;;;;;;3.03;1.50;;;11.10;99.90;;;;;;6092865;23;20166;-88
2023/01/13 08:38:42;;;;;;;3.43;1.57;;;11.10;99.90;;;;;;6104070;23;20157;-87
2023/01/13 08:41:11;;;;;;;2.20;1.70;;;11.20;99.90;;;;;;6092649;23;20187;-82
2023/01/13 08:43:42;;;;;;;2.17;1.20;;;11.20;99.90;;;;;;6089656;23;20180;-82
2023/01/13 08:46:14;;;;;;;1.53;1.20;;;11.20;99.90;;;;;;6099725;23;20188;-87
2023/01/13 08:48:49;;;;;;;2.40;1.30;;;11.20;99.90;;;;;;6101541;23;20161;-89
2023/01/13 08:51:18;;;;;;;1.87;1.40;;;11.30;99.90;;;;;;6149506;23;20156;-82
2023/01/13 08:53:45;;;;;;;1.50;1.23;;;11.30;99.90;;;;;;6132369;23;20185;-82
2023/01/13 08:56:13;;;;;;;1.73;1.30;;;11.30;99.90;;;;;;6097990;23;20245;-82
2023/01/13 08:58:41;;;;;;;1.83;1.30;;;11.30;99.90;;;;;;6150764;23;20168;-89
2023/01/13 09:01:08;;;;;;;2.50;1.27;;;11.30;99.90;;;;;;6074372;23;20168;-88
2023/01/13 09:03:37;;;;;;;2.40;1.50;;;11.40;99.90;;;;;;6100705;23;20256;-83
2023/01/13 09:06:14;;;;;;;3.47;1.30;;;11.40;99.90;;;;;;6147118;23;20188;-83
2023/01/13 09:08:44;;;;;;;1.70;1.40;;;11.40;99.90;;;;;;6100475;23;20161;-88
2023/01/13 09:14:09;;;;;;;3.50;1.63;;;11.40;99.90;;;;;;6126761;23;20161;-90
2023/01/13 09:16:38;;;;;;;3.47;1.90;;;11.40;99.90;;;;;;6126952;23;20157;-88
2023/01/13 09:19:05;;;;;;;3.57;1.80;;;11.50;99.90;;;;;;6150188;23;20160;-88
2023/01/13 09:21:32;;;;;;;2.37;1.53;;;11.50;99.90;;;;;;6099386;23;20161;-87
2023/01/13 09:24:10;;;;;;;6.30;1.60;;;11.50;99.90;;;;;;6106150;23;20153;-88
2023/01/13 09:26:41;;;;;;;3.03;1.50;;;11.50;99.90;;;;;;6122508;23;20187;-83
2023/01/13 09:29:08;;;;;;;2.20;1.40;;;11.40;99.90;;;;;;6122645;23;20241;-83
2023/01/13 09:31:34;;;;;;;2.93;1.27;;;11.40;99.90;;;;;;6101095;23;20277;-82
2023/01/13 09:36:51;;;;;;;1.93;1.30;;;11.50;99.90;;;;;;6158749;23;20159;-83
2023/01/13 09:39:28;;;;;;;1.60;1.20;;;11.50;99.90;;;;;;6150511;23;20161;-87
2023/01/13 09:45:16;;;;;;;4.13;1.57;;;11.70;99.90;;;;;;6124573;23;20458;-86
2023/01/13 09:48:09;;;;;;;6.10;1.50;;;11.70;99.90;;;;;;6125677;23;20239;-86
2023/01/13 09:51:00;;;;;;;1.53;1.20;;;11.80;99.90;;;;;;6101368;23;20509;-87
2023/01/13 09:53:44;;;;;;;1.73;1.30;;;11.80;99.90;;;;;;6165090;23;20593;-83
2023/01/13 09:56:11;;;;;;;1.40;1.03;;;11.90;99.90;;;;;;6161043;23;20211;-80
2023/01/13 09:58:37;;;;;;;3.43;1.30;;;11.90;99.90;;;;;;6123509;23;20549;-84
2023/01/13 10:01:45;;;;;;;2.63;1.33;;;12.00;99.90;;;;;;6159823;23;20252;-83
2023/01/13 10:04:15;;;;;;;1.67;1.33;;;12.00;99.90;;;;;;6122909;23;20208;-86
2023/01/13 10:06:55;;;;;;;3.50;1.97;;;12.10;99.90;;;;;;6104700;23;20165;-87
2023/01/13 10:09:48;;;;;;;2.30;1.90;;;12.10;99.90;;;;;;6125697;23;20180;-83
2023/01/13 10:15:25;;;;;;;4.33;2.20;;;12.10;99.90;;;;;;6127349;23;20169;-89
2023/01/13 10:18:14;;;;;;;2.83;1.97;;;12.10;99.90;;;;;;6106729;23;20152;-87
2023/01/13 10:21:29;;;;;;;3.07;1.60;;;12.00;99.90;;;;;;6096739;23;20165;-83
2023/01/13 10:24:19;;;;;;;4.33;1.50;;;12.10;99.90;;;;;;6062454;23;20173;-82
2023/01/13 10:27:18;;;;;;;1.60;1.30;;;12.10;99.90;;;;;;6061000;23;20269;-82
2023/01/13 10:29:47;;;;;;;2.07;1.63;;;12.10;99.90;;;;;;6115926;23;20157;-87
2023/01/13 10:32:19;;;;;;;4.63;1.67;;;12.10;99.90;;;;;;6123706;23;20153;-87
2023/01/13 10:34:57;;;;;;;1.97;1.50;;;12.10;99.90;;;;;;6097408;23;20271;-83
2023/01/13 10:37:26;;;;;;;2.30;1.60;;;12.20;99.90;;;;;;6094689;23;20161;-81
2023/01/13 10:40:01;;;;;;;4.13;1.97;;;12.30;99.90;;;;;;6100668;23;20164;-84
2023/01/13 10:42:27;;;;;;;3.47;1.77;;;12.30;99.90;;;;;;6097781;23;20171;-85
2023/01/13 10:44:59;;;;;;;1.80;1.60;;;12.40;99.90;;;;;;6098533;23;20565;-86
2023/01/13 10:47:35;;;;;;;3.23;1.80;;;12.40;99.90;;;;;;6099346;23;20181;-86
2023/01/13 10:50:20;;;;;;;2.10;1.80;;;12.50;99.90;;;;;;6096252;23;20244;-83
2023/01/13 10:53:15;;;;;;;2.10;1.50;;;12.60;99.90;;;;;;6097675;23;20573;-82
2023/01/13 10:55:56;;;;;;;2.37;1.67;;;12.50;99.90;;;;;;6097012;23;20161;-80
2023/01/13 10:58:25;;;;;;;2.23;1.80;;;12.50;99.90;;;;;;6121599;23;20161;-82
2023/01/13 11:01:01;;;;;;;2.07;1.63;;;12.50;99.90;;;;;;6158507;23;20157;-87
2023/01/13 11:03:41;;;;;;;3.33;1.90;;;12.50;99.90;;;;;;6101497;23;20210;-87
2023/01/13 11:06:20;;;;;;;1.80;1.60;;;12.50;99.90;;;;;;6104402;23;20193;-86
2023/01/13 11:08:51;;;;;;;3.53;2.10;;;12.40;99.90;;;;;;6103925;23;20481;-86
2023/01/13 11:11:46;;;;;;;3.70;1.97;;;12.40;99.90;;;;;;6105453;23;20157;-88
2023/01/13 11:14:38;;;;;;;4.70;1.90;;;12.40;99.90;;;;;;6165339;23;20216;-87
2023/01/13 11:17:41;;;;;;;2.30;2.00;;;12.40;99.90;;;;;;6099977;23;20161;-82
2023/01/13 11:20:10;;;;;;;3.90;2.17;;;12.40;99.90;;;;;;6121547;23;20488;-83
2023/01/13 11:22:58;;;;;;;3.37;2.10;;;12.50;99.90;;;;;;6098417;23;20164;-82
2023/01/13 11:25:51;;;;;;;4.77;2.13;;;12.50;99.90;;;;;;6100087;23;20333;-88
2023/01/13 11:28:29;;;;;;;2.83;1.93;;;12.50;99.90;;;;;;6100173;23;20156;-88
2023/01/13 11:31:34;;;;;;;4.17;2.20;;;12.50;99.90;;;;;;6124781;23;20525;-82
2023/01/13 11:34:45;;;;;;;4.27;2.10;;;12.50;99.90;;;;;;6098757;23;20161;-90
2023/01/13 11:37:27;;;;;;;3.40;2.13;;;12.50;99.90;;;;;;6096809;23;20157;-83
2023/01/13 11:40:35;;;;;;;4.23;2.43;;;12.40;99.90;;;;;;6097450;23;20607;-82
2023/01/13 11:43:45;;;;;;;3.37;2.03;;;12.40;99.90;;;;;;6098648;23;20256;-88
2023/01/13 11:46:12;;;;;;;2.90;2.30;;;12.40;99.90;;;;;;6124198;23;20197;-81
2023/01/13 11:48:42;;;;;;;3.90;2.53;;;12.40;99.90;;;;;;6125429;23;20165;-88
2023/01/13 11:51:33;;;;;;;4.83;2.50;;;12.40;99.90;;;;;;6077678;23;20169;-83
2023/01/13 11:54:21;;;;;;;3.13;2.20;;;12.30;99.90;;;;;;6121543;23;20248;-87
2023/01/13 11:57:42;;;;;;;5.80;1.93;;;12.40;99.90;;;;;;6122653;23;20529;-83
2023/01/13 12:00:41;;;;;;;3.77;2.17;;;12.40;99.90;;;;;;6095420;23;20179;-82
2023/01/13 12:03:41;;;;;;;5.53;2.30;;;12.40;99.90;;;;;;6103201;23;20171;-89
2023/01/13 12:06:33;;;;;;;3.93;2.40;;;12.40;99.90;;;;;;6149397;23;20188;-86
2023/01/13 12:09:27;;;;;;;2.57;2.20;;;12.40;99.90;;;;;;6102643;23;20185;-88
2023/01/13 12:12:19;;;;;;;5.10;2.40;;;12.40;99.90;;;;;;6126086;23;20160;-86
2023/01/13 12:15:20;;;;;;;2.70;2.07;;;12.40;99.90;;;;;;6127425;23;20231;-91
2023/01/13 12:18:38;;;;;;;5.43;2.63;;;12.40;99.90;;;;;;6100817;23;20193;-88
2023/01/13 12:21:33;;;;;;;3.50;2.43;;;12.40;99.90;;;;;;6098330;23;20161;-83
2023/01/13 12:24:26;;;;;;;3.77;2.40;;;12.40;99.90;;;;;;6087367;23;20282;-83
2023/01/13 12:27:22;;;;;;;2.77;2.50;;;12.30;99.90;;;;;;6122807;23;20576;-83
2023/01/13 12:29:54;;;;;;;3.87;2.33;;;12.30;99.90;;;;;;6121024;23;20594;-83
2023/01/13 12:32:33;;;;;;;3.77;2.50;;;12.30;99.90;;;;;;6125434;23;20182;-87
2023/01/13 12:35:08;;;;;;;3.03;2.43;;;12.20;99.90;;;;;;6150166;23;20153;-87
2023/01/13 12:37:41;;;;;;;4.37;2.20;;;12.20;99.90;;;;;;6131397;23;20253;-83
2023/01/13 12:40:41;;;;;;;2.80;2.10;;;12.20;99.90;;;;;;6099143;23;20481;-83
2023/01/13 12:46:24;;;;;;;2.57;2.00;;;12.10;99.90;;;;;;6121870;23;20195;-87
2023/01/13 12:48:55;;;;;;;3.27;2.30;;;12.10;99.90;;;;;;6124916;23;20561;-83
2023/01/13 12:51:56;;;;;;;3.17;2.70;;;12.10;99.90;;;;;;6096423;23;20165;-87
2023/01/13 12:54:42;;;;;;;3.70;2.30;;;12.10;99.90;;;;;;6158589;23;20894;-89
2023/01/13 12:57:26;;;;;;;4.50;2.43;;;12.00;99.90;;;;;;6119745;23;20273;-83
2023/01/13 13:00:01;;;;;;;4.50;2.50;;;12.00;99.90;;;;;;6150248;23;20256;-84
2023/01/13 13:02:40;;;;;;;3.60;2.67;;;12.00;99.90;;;;;;6094985;23;20604;-85
2023/01/13 13:05:16;;;;;;;3.90;2.60;;;12.00;99.90;;;;;;6099215;23;20188;-85
2023/01/13 13:07:50;;;;;;;3.07;2.50;;;11.90;99.90;;;;;;6098146;23;20157;-86
2023/01/13 13:10:36;;;;;;;5.87;2.57;;;11.80;99.90;;;;;;6097300;23;20204;-85
2023/01/13 13:13:18;;;;;;;7.63;3.07;;;11.80;99.90;;;;;;6099311;23;20187;-85
2023/01/13 13:15:50;;;;;;;13.70;3.70;;;11.70;99.90;;;;;;6159530;23;20610;-88
2023/01/13 13:18:17;;;;;;;8.97;3.77;;;11.50;99.90;;;;;;6098730;23;20641;-84
2023/01/13 13:21:01;;;;;;;5.13;3.50;;;11.40;99.90;;;;;;6125460;23;20172;-85
2023/01/13 13:23:37;;;;;;;9.40;3.43;;;11.20;99.90;;;;;;6097546;23;20169;-82
2023/01/13 13:26:28;;;;;;;7.40;3.53;;;11.10;99.90;;;;;;6099026;23;20222;-84
2023/01/13 13:29:22;;;;;;;5.67;3.30;;;11.20;99.90;;;;;;6122008;23;20180;-84
2023/01/13 13:32:27;;;;;;;10.33;5.00;;;11.20;99.90;;;;;;6099011;23;20161;-84
2023/01/13 13:35:31;;;;;;;13.37;6.83;;;11.20;99.90;;;;;;6098734;23;20169;-83
2023/01/13 13:47:08;;;;;;;3.90;2.87;;;11.00;99.90;;;;;;6123241;23;20671;-85
2023/01/13 13:49:52;;;;;;;3.37;2.43;;;10.90;99.90;;;;;;6100045;23;20494;-85
2023/01/13 13:52:53;;;;;;;5.77;3.00;;;10.90;99.90;;;;;;6099765;23;20155;-84
2023/01/13 13:55:28;;;;;;;4.37;2.70;;;11.00;99.90;;;;;;6122489;23;20192;-89
2023/01/13 13:58:05;;;;;;;4.60;3.10;;;10.90;99.90;;;;;;6097009;23;20170;-85
2023/01/13 14:00:37;;;;;;;3.67;3.30;;;10.90;99.90;;;;;;6098601;23;20167;-87
2023/01/13 14:03:24;;;;;;;4.33;3.50;;;10.90;99.90;;;;;;6099563;23;20272;-88
2023/01/13 14:05:53;;;;;;;3.70;3.00;;;10.90;99.90;;;;;;6120832;23;20188;-85
2023/01/13 14:08:21;;;;;;;4.80;3.63;;;10.80;99.90;;;;;;6116367;23;20157;-84
2023/01/13 14:10:48;;;;;;;5.00;3.70;;;10.80;99.90;;;;;;6092805;23;20239;-84
2023/01/13 14:13:26;;;;;;;4.43;3.63;;;10.80;99.90;;;;;;6144223;23;20164;-85
2023/01/13 14:16:18;;;;;;;4.70;4.10;;;10.80;99.90;;;;;;6094347;23;20168;-85
2023/01/13 14:18:47;;;;;;;5.97;4.47;;;10.80;99.90;;;;;;6095837;23;20188;-84
2023/01/13 14:21:29;;;;;;;7.13;5.00;;;10.80;99.90;;;;;;6096922;23;20219;-84
2023/01/13 14:24:13;;;;;;;7.07;5.50;;;10.80;99.90;;;;;;6158552;23;20598;-85
2023/01/13 14:26:43;;;;;;;7.93;5.83;;;10.80;99.90;;;;;;6094866;23;20173;-86
2023/01/13 14:29:21;;;;;;;7.97;6.00;;;10.70;99.90;;;;;;6098093;23;20564;-84
2023/01/13 14:31:52;;;;;;;9.37;6.20;;;10.70;99.90;;;;;;6098435;23;20161;-86
2023/01/13 14:34:21;;;;;;;7.63;6.10;;;10.70;99.90;;;;;;6097948;23;20231;-86